createdAt,value
2024-01-16T00:00:11.084Z,10.00
2024-01-16T00:02:39.695Z,10.00
2024-01-16T00:05:08.698Z,9.00
2024-01-16T00:07:38.694Z,9.25
2024-01-16T00:10:09.300Z,9.00
2024-01-16T00:12:37.712Z,8.50
2024-01-16T00:15:07.780Z,7.25
2024-01-16T00:17:36.417Z,7.50
2024-01-16T00:20:07.109Z,9.50
2024-01-16T00:22:35.534Z,10.50
2024-01-16T00:25:03.933Z,8.00
2024-01-16T00:27:32.329Z,9.00
2024-01-16T00:30:00.740Z,7.50
2024-01-16T00:32:29.161Z,7.50
2024-01-16T00:34:57.528Z,7.00
2024-01-16T00:37:25.914Z,8.00
2024-01-16T00:39:54.312Z,5.00
2024-01-16T00:42:23.034Z,6.75
2024-01-16T00:44:51.459Z,6.50
2024-01-16T00:47:19.996Z,7.00
2024-01-16T00:49:49.449Z,6.75
2024-01-16T00:52:17.965Z,6.25
2024-01-16T00:54:49.846Z,4.25
2024-01-16T00:57:21.259Z,3.50
2024-01-16T00:59:49.765Z,5.50
2024-01-16T01:02:18.325Z,6.00
2024-01-16T01:04:46.925Z,6.75
2024-01-16T01:07:18.323Z,4.75
2024-01-16T01:09:46.744Z,5.00
2024-01-16T01:12:15.135Z,5.00
2024-01-16T01:14:43.688Z,3.50
2024-01-16T01:17:12.091Z,4.00
2024-01-16T01:19:40.937Z,4.00
2024-01-16T01:22:09.292Z,5.25
2024-01-16T01:24:37.658Z,3.25
2024-01-16T01:27:06.370Z,4.00
2024-01-16T01:29:34.807Z,3.75
2024-01-16T01:32:03.256Z,4.00
2024-01-16T01:34:31.722Z,4.00
2024-01-16T01:37:00.087Z,2.00
2024-01-16T01:39:28.595Z,3.00
2024-01-16T01:41:57.405Z,2.50
2024-01-16T01:44:27.000Z,3.00
2024-01-16T01:46:57.722Z,3.00
2024-01-16T01:49:28.051Z,2.25
2024-01-16T01:52:00.298Z,2.00
2024-01-16T01:54:29.804Z,3.00
2024-01-16T01:56:58.587Z,3.00
2024-01-16T01:59:27.762Z,4.00
2024-01-16T02:01:56.673Z,3.00
2024-01-16T02:04:26.907Z,4.00
2024-01-16T02:06:56.486Z,2.75
2024-01-16T02:09:27.487Z,2.00
2024-01-16T02:11:55.972Z,2.50
2024-01-16T02:14:24.565Z,2.75
2024-01-16T02:16:53.020Z,2.25
2024-01-16T02:19:21.527Z,2.00
2024-01-16T02:21:51.556Z,1.50
2024-01-16T02:24:21.157Z,3.25
2024-01-16T02:26:49.872Z,2.50
2024-01-16T02:29:18.364Z,3.75
2024-01-16T02:31:46.852Z,3.00
2024-01-16T02:34:18.109Z,2.00
2024-01-16T02:36:46.557Z,3.25
2024-01-16T02:39:14.958Z,2.00
2024-01-16T02:41:43.872Z,3.25
2024-01-16T02:44:12.574Z,3.00
2024-01-16T02:46:41.075Z,4.00
2024-01-16T02:49:09.677Z,3.00
2024-01-16T02:51:38.152Z,3.00
2024-01-16T02:54:09.763Z,3.00
2024-01-16T02:56:38.306Z,3.00
2024-01-16T02:59:06.813Z,2.75
2024-01-16T03:01:35.429Z,2.00
2024-01-16T03:04:03.868Z,2.75
2024-01-16T03:06:33.809Z,2.75
2024-01-16T03:09:02.430Z,2.00
2024-01-16T03:11:33.335Z,3.00
2024-01-16T03:14:01.951Z,2.00
2024-01-16T03:16:30.576Z,3.75
2024-01-16T03:18:59.050Z,2.00
2024-01-16T03:21:27.486Z,2.50
2024-01-16T03:23:56.773Z,3.00
2024-01-16T03:26:25.290Z,2.00
2024-01-16T03:28:53.705Z,3.75
2024-01-16T03:31:23.404Z,2.00
2024-01-16T03:33:52.490Z,3.00
2024-01-16T03:36:21.012Z,2.25
2024-01-16T03:38:49.453Z,2.75
2024-01-16T03:41:18.011Z,2.00
2024-01-16T03:43:46.809Z,3.00
2024-01-16T03:46:15.251Z,3.00
2024-01-16T03:48:43.772Z,2.00
2024-01-16T03:51:12.199Z,2.00
2024-01-16T03:53:40.616Z,0.00
2024-01-16T03:56:09.855Z,2.25
2024-01-16T03:58:38.348Z,1.25
2024-01-16T04:01:06.852Z,1.00
2024-01-16T04:03:36.813Z,1.25
2024-01-16T04:06:05.537Z,2.25
2024-01-16T04:08:36.923Z,2.00
2024-01-16T04:11:05.466Z,1.00
2024-01-16T04:13:33.951Z,2.00
2024-01-16T04:16:02.420Z,3.00
2024-01-16T04:18:30.860Z,2.00
2024-01-16T04:20:59.299Z,2.00
2024-01-16T04:23:27.751Z,1.75
2024-01-16T04:25:56.135Z,1.25
2024-01-16T04:28:24.580Z,2.00
2024-01-16T04:30:53.318Z,1.75
2024-01-16T04:33:22.230Z,1.00
2024-01-16T04:35:50.741Z,1.00
2024-01-16T04:38:21.754Z,2.25
2024-01-16T04:40:50.665Z,2.75
2024-01-16T04:43:19.072Z,2.00
2024-01-16T04:45:48.335Z,2.00
2024-01-16T04:48:16.942Z,2.50
2024-01-16T04:50:46.696Z,2.75
2024-01-16T04:53:15.359Z,2.00
2024-01-16T04:55:43.835Z,2.00
2024-01-16T04:58:12.478Z,2.75
2024-01-16T05:00:41.000Z,1.00
2024-01-16T05:03:09.345Z,3.50
2024-01-16T05:05:37.938Z,1.75
2024-01-16T05:08:09.721Z,2.00
2024-01-16T05:10:38.222Z,2.50
2024-01-16T05:13:06.610Z,1.75
2024-01-16T05:15:38.170Z,1.75
2024-01-16T05:18:07.757Z,1.75
2024-01-16T05:20:36.493Z,3.00
2024-01-16T05:23:05.069Z,1.50
2024-01-16T05:25:33.470Z,1.25
2024-01-16T05:28:02.695Z,4.00
2024-01-16T05:30:32.320Z,3.00
2024-01-16T05:33:03.038Z,2.25
2024-01-16T05:35:32.058Z,1.00
2024-01-16T05:38:01.283Z,3.00
2024-01-16T05:40:29.623Z,2.00
2024-01-16T05:42:58.568Z,2.25
2024-01-16T05:45:27.010Z,3.00
2024-01-16T05:47:55.416Z,2.00
2024-01-16T05:50:23.924Z,1.75
2024-01-16T05:52:52.387Z,2.50
2024-01-16T05:55:23.398Z,2.25
2024-01-16T05:57:51.783Z,1.00
2024-01-16T06:00:20.596Z,1.75
2024-01-16T06:02:49.030Z,2.00
2024-01-16T06:05:17.607Z,2.00
2024-01-16T06:07:46.292Z,1.50
2024-01-16T06:10:18.341Z,2.00
2024-01-16T06:12:46.759Z,1.00
2024-01-16T06:15:15.173Z,1.25
2024-01-16T06:17:43.754Z,2.00
2024-01-16T06:20:12.853Z,2.75
2024-01-16T06:22:44.906Z,3.00
2024-01-16T06:25:13.414Z,1.50
2024-01-16T06:27:43.205Z,1.00
2024-01-16T06:30:12.416Z,1.00
2024-01-16T06:32:44.550Z,0.75
2024-01-16T06:35:15.799Z,3.00
2024-01-16T06:37:44.534Z,1.00
2024-01-16T06:40:13.327Z,3.00
2024-01-16T06:42:41.874Z,1.00
2024-01-16T06:45:10.507Z,2.00
2024-01-16T06:47:39.363Z,2.00
2024-01-16T06:50:09.972Z,1.00
2024-01-16T06:52:38.490Z,1.50
2024-01-16T06:55:07.219Z,1.00
2024-01-16T06:57:35.713Z,2.00
2024-01-16T07:00:04.275Z,1.00
2024-01-16T07:02:32.748Z,0.75
2024-01-16T07:05:02.050Z,0.00
2024-01-16T07:07:30.529Z,1.00
2024-01-16T07:09:58.912Z,1.25
2024-01-16T07:12:27.383Z,1.00
2024-01-16T07:14:55.796Z,0.75
2024-01-16T07:17:24.300Z,2.00
2024-01-16T07:19:53.935Z,2.00
2024-01-16T07:22:22.764Z,2.50
2024-01-16T07:24:51.167Z,1.75
2024-01-16T07:27:19.775Z,1.00
2024-01-16T07:29:48.459Z,1.25
2024-01-16T07:32:16.932Z,1.25
2024-01-16T07:34:46.354Z,1.00
2024-01-16T07:37:14.885Z,1.50
2024-01-16T07:39:43.527Z,1.00
2024-01-16T07:42:12.873Z,1.00
2024-01-16T07:44:41.701Z,1.00
2024-01-16T07:47:10.322Z,2.00
2024-01-16T07:49:38.917Z,2.00
2024-01-16T07:52:07.546Z,2.00
2024-01-16T07:54:35.923Z,1.25
2024-01-16T07:57:04.648Z,1.50
2024-01-16T07:59:33.759Z,1.00
2024-01-16T08:02:02.553Z,1.00
2024-01-16T08:04:31.027Z,2.00
2024-01-16T08:06:59.500Z,1.75
2024-01-16T08:09:30.567Z,2.75
2024-01-16T08:11:59.524Z,2.00
2024-01-16T08:14:27.932Z,2.75
2024-01-16T08:16:56.453Z,4.00
2024-01-16T08:19:25.072Z,3.00
2024-01-16T08:21:53.522Z,3.00
2024-01-16T08:24:22.076Z,3.25
2024-01-16T08:26:50.605Z,3.00
2024-01-16T08:29:19.199Z,5.75
2024-01-16T08:31:47.703Z,4.25
2024-01-16T08:34:16.628Z,5.25
2024-01-16T08:36:45.252Z,2.75
2024-01-16T08:39:13.966Z,2.50
2024-01-16T08:41:42.384Z,5.75
2024-01-16T08:44:10.881Z,4.50
2024-01-16T08:46:39.628Z,2.50
2024-01-16T08:49:08.094Z,2.00
2024-01-16T08:51:36.603Z,1.25
2024-01-16T08:54:05.088Z,2.50
2024-01-16T08:56:33.535Z,1.50
2024-01-16T08:59:02.081Z,2.00
2024-01-16T09:01:30.477Z,1.50
2024-01-16T09:03:58.980Z,2.00
2024-01-16T09:06:27.716Z,1.25
2024-01-16T09:08:56.446Z,1.00
2024-01-16T09:11:24.937Z,2.25
2024-01-16T09:13:53.773Z,2.75
2024-01-16T09:16:22.120Z,3.25
2024-01-16T09:18:50.532Z,1.75
2024-01-16T09:21:19.005Z,1.50
2024-01-16T09:23:47.396Z,1.00
2024-01-16T09:26:15.875Z,1.50
2024-01-16T09:28:44.269Z,2.25
2024-01-16T09:31:12.799Z,1.00
2024-01-16T09:33:41.317Z,2.00
2024-01-16T09:36:09.826Z,2.25
2024-01-16T09:38:38.567Z,1.50
2024-01-16T09:41:07.952Z,2.00
2024-01-16T09:43:37.273Z,2.25
2024-01-16T09:46:08.377Z,2.50
2024-01-16T09:48:37.004Z,2.75
2024-01-16T09:51:05.866Z,2.75
2024-01-16T09:53:34.696Z,2.00
2024-01-16T09:56:06.427Z,2.00
2024-01-16T09:58:39.201Z,3.00
2024-01-16T10:01:08.309Z,2.00
2024-01-16T10:03:38.017Z,1.00
2024-01-16T10:06:10.504Z,2.00
2024-01-16T10:08:40.307Z,1.50
2024-01-16T10:11:08.709Z,1.00
2024-01-16T10:13:37.999Z,1.00
2024-01-16T10:16:06.708Z,2.25
2024-01-16T10:18:36.722Z,2.25
2024-01-16T10:21:05.423Z,2.25
2024-01-16T10:23:34.969Z,2.75
2024-01-16T10:26:16.160Z,3.00
2024-01-16T10:28:45.678Z,2.25
2024-01-16T10:31:18.702Z,4.00
2024-01-16T10:33:47.530Z,2.00
2024-01-16T10:36:22.568Z,3.00
2024-01-16T10:38:56.474Z,1.75
2024-01-16T10:41:27.292Z,2.00
2024-01-16T10:44:09.958Z,3.00
2024-01-16T10:46:38.992Z,2.25
2024-01-16T10:49:08.467Z,3.00
2024-01-16T10:51:37.371Z,2.00
2024-01-16T10:54:11.544Z,2.00
2024-01-16T10:56:42.346Z,1.50
2024-01-16T10:59:13.689Z,3.25
2024-01-16T11:01:47.743Z,2.25
2024-01-16T11:04:17.733Z,2.25
2024-01-16T11:06:47.086Z,3.00
2024-01-16T11:09:19.268Z,4.00
2024-01-16T11:11:49.224Z,4.50
2024-01-16T11:14:18.573Z,3.50
2024-01-16T11:16:50.149Z,4.75
2024-01-16T11:19:37.690Z,4.00
2024-01-16T11:22:09.331Z,3.00
2024-01-16T11:24:37.723Z,2.00
2024-01-16T11:27:06.651Z,3.25
2024-01-16T11:29:35.089Z,4.50
2024-01-16T11:32:17.969Z,4.25
2024-01-16T11:34:57.573Z,5.00
2024-01-16T11:37:35.105Z,4.75
2024-01-16T11:40:23.114Z,3.75
2024-01-16T11:42:55.246Z,4.25
2024-01-16T11:45:29.874Z,3.75
2024-01-16T11:48:14.524Z,4.50
2024-01-16T11:50:44.158Z,4.00
2024-01-16T11:53:12.667Z,4.00
2024-01-16T11:56:13.406Z,5.00
2024-01-16T11:59:15.199Z,3.75
2024-01-16T12:01:47.357Z,3.75
2024-01-16T12:04:20.144Z,5.75
2024-01-16T12:07:01.140Z,5.00
2024-01-16T12:09:30.734Z,6.00
2024-01-16T12:12:01.520Z,4.75
2024-01-16T12:14:31.118Z,4.00
2024-01-16T12:17:16.232Z,6.75
2024-01-16T12:19:45.586Z,7.00
2024-01-16T12:22:16.863Z,6.50
2024-01-16T12:24:45.316Z,6.25
2024-01-16T12:27:15.303Z,7.50
2024-01-16T12:29:44.132Z,6.75
2024-01-16T12:32:13.820Z,7.00
2024-01-16T12:34:50.515Z,9.75
2024-01-16T12:37:19.150Z,6.00
2024-01-16T12:39:47.568Z,9.00
2024-01-16T12:42:16.493Z,8.25
2024-01-16T12:44:45.045Z,9.00
2024-01-16T12:47:17.154Z,6.00
2024-01-16T12:49:45.912Z,10.00
2024-01-16T12:52:24.099Z,8.50
2024-01-16T12:55:02.932Z,8.00
2024-01-16T12:57:31.548Z,8.25
2024-01-16T13:00:02.881Z,8.75
2024-01-16T13:02:35.671Z,6.75
2024-01-16T13:05:06.061Z,9.50
2024-01-16T13:07:35.081Z,9.75
2024-01-16T13:10:10.726Z,8.75
2024-01-16T13:12:39.733Z,9.00
2024-01-16T13:15:08.771Z,8.75
2024-01-16T13:17:37.870Z,8.50
2024-01-16T13:20:10.060Z,9.25
2024-01-16T13:22:44.738Z,9.75
2024-01-16T13:25:16.440Z,9.00
2024-01-16T13:27:44.946Z,9.00
2024-01-16T13:30:16.609Z,11.00
2024-01-16T13:32:45.284Z,8.25
2024-01-16T13:35:14.200Z,9.50
2024-01-16T13:37:42.736Z,10.00
2024-01-16T13:40:17.406Z,9.00
2024-01-16T13:42:46.539Z,10.50
2024-01-16T13:45:15.404Z,12.75
2024-01-16T13:47:43.970Z,10.75
2024-01-16T13:50:12.653Z,12.00
2024-01-16T13:52:42.499Z,10.00
2024-01-16T13:55:11.200Z,10.50
2024-01-16T13:57:40.510Z,12.25
2024-01-16T14:00:15.335Z,12.75
2024-01-16T14:02:45.125Z,11.75
2024-01-16T14:05:18.200Z,11.25
2024-01-16T14:07:52.614Z,10.50
2024-01-16T14:10:26.717Z,13.50
2024-01-16T14:12:55.141Z,12.00
2024-01-16T14:15:27.542Z,10.50
2024-01-16T14:17:58.489Z,11.50
2024-01-16T14:20:30.493Z,11.50
2024-01-16T14:22:59.852Z,12.75
2024-01-16T14:25:28.309Z,10.25
2024-01-16T14:28:12.320Z,10.25
2024-01-16T14:30:44.798Z,10.75
2024-01-16T14:33:14.869Z,12.75
2024-01-16T14:35:42.929Z,14.25
2024-01-16T14:38:11.320Z,11.00
2024-01-16T14:40:39.678Z,10.00
2024-01-16T14:43:08.031Z,12.00
2024-01-16T14:45:35.968Z,13.00
2024-01-16T14:48:06.546Z,10.00
2024-01-16T14:50:35.143Z,11.00
2024-01-16T14:53:05.065Z,13.00
2024-01-16T14:55:33.402Z,12.25
2024-01-16T14:58:04.821Z,10.50
2024-01-16T15:00:34.908Z,11.00
2024-01-16T15:03:03.984Z,12.75
2024-01-16T15:05:33.272Z,13.00
2024-01-16T15:08:01.775Z,13.00
2024-01-16T15:10:30.141Z,11.25
2024-01-16T15:12:58.478Z,7.25
2024-01-16T15:15:26.957Z,8.50
2024-01-16T15:17:55.406Z,6.00
2024-01-16T15:20:23.866Z,6.75
2024-01-16T15:22:54.741Z,5.25
2024-01-16T15:25:24.647Z,6.00
2024-01-16T15:27:57.201Z,5.75
2024-01-16T15:30:29.932Z,5.00
2024-01-16T15:32:58.437Z,4.75
2024-01-16T15:35:27.049Z,4.00
2024-01-16T15:37:56.535Z,5.25
2024-01-16T15:40:25.235Z,5.25
2024-01-16T15:42:53.759Z,5.00
2024-01-16T15:45:24.367Z,4.00
2024-01-16T15:47:54.688Z,5.00
2024-01-16T15:50:23.331Z,4.25
2024-01-16T15:52:54.062Z,4.25
2024-01-16T15:55:23.039Z,5.00
2024-01-16T15:57:51.446Z,6.00
2024-01-16T16:00:19.913Z,7.00
2024-01-16T16:02:50.987Z,5.00
2024-01-16T16:05:19.550Z,5.00
2024-01-16T16:07:48.634Z,4.75
2024-01-16T16:10:17.305Z,5.00
2024-01-16T16:12:45.639Z,4.25
2024-01-16T16:15:13.973Z,5.75
2024-01-16T16:17:42.706Z,4.75
2024-01-16T16:20:11.951Z,4.00
2024-01-16T16:22:40.596Z,4.50
2024-01-16T16:25:09.413Z,6.00
2024-01-16T16:27:37.800Z,4.75
2024-01-16T16:30:07.745Z,3.25
2024-01-16T16:32:36.268Z,4.25
2024-01-16T16:35:06.240Z,5.00
2024-01-16T16:37:35.835Z,3.75
2024-01-16T16:40:06.853Z,5.50
2024-01-16T16:42:35.340Z,5.00
2024-01-16T16:45:04.370Z,4.50
2024-01-16T16:47:33.798Z,3.00
2024-01-16T16:50:02.163Z,4.75
2024-01-16T16:52:30.548Z,3.75
2024-01-16T16:54:58.885Z,4.00
2024-01-16T16:57:27.280Z,3.00
2024-01-16T16:59:55.730Z,4.00
2024-01-16T17:02:24.571Z,4.25
2024-01-16T17:04:53.490Z,4.50
2024-01-16T17:07:22.001Z,4.00
2024-01-16T17:09:50.427Z,4.00
2024-01-16T17:12:20.213Z,5.00
2024-01-16T17:14:48.751Z,3.50
2024-01-16T17:17:17.279Z,6.00
2024-01-16T17:19:45.743Z,4.00
2024-01-16T17:22:14.076Z,3.50
2024-01-16T17:24:42.418Z,3.00
2024-01-16T17:27:11.145Z,3.75
2024-01-16T17:29:40.672Z,3.00
2024-01-16T17:32:09.736Z,3.00
2024-01-16T17:34:38.220Z,5.00
2024-01-16T17:37:06.686Z,3.00
2024-01-16T17:39:35.147Z,2.25
2024-01-16T17:42:05.678Z,2.00
2024-01-16T17:44:39.006Z,3.00
2024-01-16T17:47:07.607Z,3.25
2024-01-16T17:49:36.047Z,3.00
2024-01-16T17:52:05.951Z,3.00
2024-01-16T17:54:34.296Z,2.00
2024-01-16T17:57:02.674Z,3.00
2024-01-16T17:59:34.160Z,2.00
2024-01-16T18:02:02.837Z,3.00
2024-01-16T18:04:31.253Z,3.75
2024-01-16T18:06:59.740Z,3.00
2024-01-16T18:09:30.757Z,2.00
2024-01-16T18:12:01.041Z,2.00
2024-01-16T18:14:30.165Z,2.75
2024-01-16T18:16:58.961Z,3.75
2024-01-16T18:19:27.396Z,2.25
2024-01-16T18:21:57.523Z,2.50
2024-01-16T18:24:26.729Z,1.75
2024-01-16T18:26:55.240Z,2.00
2024-01-16T18:29:23.987Z,2.50
2024-01-16T18:31:52.404Z,3.00
2024-01-16T18:34:23.945Z,2.00
2024-01-16T18:36:55.180Z,2.00
2024-01-16T18:39:24.289Z,3.00
2024-01-16T18:41:53.351Z,1.00
2024-01-16T18:44:22.221Z,2.00
2024-01-16T18:46:50.677Z,1.00
2024-01-16T18:49:20.507Z,3.00
2024-01-16T18:51:49.546Z,2.00
2024-01-16T18:54:18.098Z,1.25
2024-01-16T18:56:46.757Z,2.25
2024-01-16T18:59:15.161Z,2.00
2024-01-16T19:01:43.896Z,4.00
2024-01-16T19:04:14.570Z,2.00
2024-01-16T19:06:50.028Z,4.00
2024-01-16T19:09:20.017Z,3.00
2024-01-16T19:11:55.195Z,2.00
2024-01-16T19:14:23.639Z,2.00
2024-01-16T19:16:52.256Z,3.25
2024-01-16T19:19:22.686Z,3.00
2024-01-16T19:21:52.064Z,4.00
2024-01-16T19:24:20.537Z,2.00
2024-01-16T19:26:50.427Z,3.75
2024-01-16T19:29:21.666Z,2.00
2024-01-16T19:31:50.591Z,3.75
2024-01-16T19:34:19.122Z,2.75
2024-01-16T19:36:52.212Z,2.75
2024-01-16T19:39:23.046Z,3.00
2024-01-16T19:41:51.489Z,3.75
2024-01-16T19:44:19.884Z,2.00
2024-01-16T19:46:48.301Z,2.25
2024-01-16T19:49:16.791Z,3.00
2024-01-16T19:51:47.216Z,3.00
2024-01-16T19:54:15.612Z,2.25
2024-01-16T19:56:44.196Z,3.00
2024-01-16T19:59:12.829Z,1.00
2024-01-16T20:01:41.176Z,2.00
2024-01-16T20:04:09.613Z,2.75
2024-01-16T20:06:38.772Z,2.00
2024-01-16T20:09:08.136Z,2.75
2024-01-16T20:11:37.364Z,3.75
2024-01-16T20:14:06.313Z,2.00
2024-01-16T20:16:35.000Z,3.25
2024-01-16T20:19:03.475Z,3.50
2024-01-16T20:21:31.928Z,2.25
2024-01-16T20:24:00.831Z,3.00
2024-01-16T20:26:29.574Z,1.50
2024-01-16T20:28:57.956Z,3.00
2024-01-16T20:31:26.411Z,2.50
2024-01-16T20:33:55.063Z,2.75
2024-01-16T20:36:23.689Z,2.75
2024-01-16T20:38:52.230Z,1.75
2024-01-16T20:41:20.798Z,3.00
2024-01-16T20:43:49.149Z,4.00
2024-01-16T20:46:18.680Z,1.00
2024-01-16T20:48:48.319Z,2.00
2024-01-16T20:51:18.022Z,2.75
2024-01-16T20:53:46.400Z,1.75
2024-01-16T20:56:15.525Z,2.00
2024-01-16T20:58:43.911Z,3.00
2024-01-16T21:01:12.386Z,4.00
2024-01-16T21:03:40.925Z,2.00
2024-01-16T21:06:10.550Z,2.00
2024-01-16T21:08:39.689Z,2.00
2024-01-16T21:11:08.168Z,3.50
2024-01-16T21:13:36.658Z,4.00
2024-01-16T21:16:08.774Z,3.75
2024-01-16T21:18:40.073Z,3.00
2024-01-16T21:21:08.544Z,4.00
2024-01-16T21:23:37.275Z,4.00
2024-01-16T21:26:10.852Z,6.00
2024-01-16T21:28:40.277Z,4.50
2024-01-16T21:31:08.724Z,4.25
2024-01-16T21:33:37.760Z,4.00
2024-01-16T21:36:07.028Z,4.00
2024-01-16T21:38:35.407Z,4.75
2024-01-16T21:41:03.800Z,4.75
2024-01-16T21:43:32.680Z,6.75
2024-01-16T21:46:01.143Z,4.75
2024-01-16T21:48:32.873Z,4.00
2024-01-16T21:51:02.487Z,5.00
2024-01-16T21:53:31.077Z,4.25
2024-01-16T21:55:59.478Z,3.75
2024-01-16T21:58:28.446Z,6.00
2024-01-16T22:00:57.601Z,5.00
2024-01-16T22:03:26.014Z,5.00
2024-01-16T22:05:54.440Z,3.00
2024-01-16T22:08:22.903Z,6.00
2024-01-16T22:10:51.342Z,5.00
2024-01-16T22:13:20.329Z,4.50
2024-01-16T22:15:49.774Z,4.75
2024-01-16T22:18:19.126Z,4.25
2024-01-16T22:20:48.233Z,4.00
2024-01-16T22:23:16.998Z,6.00
2024-01-16T22:25:45.501Z,3.00
2024-01-16T22:28:14.396Z,5.00
2024-01-16T22:30:42.894Z,5.00
2024-01-16T22:33:11.426Z,5.25
2024-01-16T22:35:40.117Z,6.00
2024-01-16T22:38:08.517Z,4.00
2024-01-16T22:40:38.568Z,5.00
2024-01-16T22:43:07.398Z,4.00
2024-01-16T22:45:35.757Z,5.75
2024-01-16T22:48:25.836Z,5.00
2024-01-16T22:50:54.657Z,4.25
2024-01-16T22:53:24.318Z,5.00
2024-01-16T22:55:52.697Z,5.75
2024-01-16T22:58:21.137Z,5.00
2024-01-16T23:00:55.473Z,4.50
2024-01-16T23:03:24.015Z,4.75
2024-01-16T23:05:53.245Z,6.00
2024-01-16T23:08:21.769Z,5.00
2024-01-16T23:10:50.164Z,5.75
2024-01-16T23:13:18.688Z,5.75
2024-01-16T23:15:47.330Z,4.00
2024-01-16T23:18:15.840Z,6.00
2024-01-16T23:20:44.363Z,6.75
2024-01-16T23:23:19.697Z,9.00
2024-01-16T23:25:48.365Z,7.25
2024-01-16T23:28:17.248Z,7.00
2024-01-16T23:30:45.807Z,8.00
2024-01-16T23:33:14.339Z,8.00
2024-01-16T23:35:45.328Z,7.25
2024-01-16T23:38:13.756Z,8.75
2024-01-16T23:40:42.424Z,9.00
2024-01-16T23:43:10.888Z,9.00
2024-01-16T23:45:39.686Z,9.00
2024-01-16T23:48:08.317Z,11.75
2024-01-16T23:50:36.853Z,11.25
2024-01-16T23:53:05.584Z,10.50
2024-01-16T23:55:34.430Z,10.50
2024-01-16T23:58:03.125Z,16.50
